Akron, New York
Current Conditions -  °F | °C
As of 8:52 AM on Friday 19 Dec 2014 (Local Time) from KBUF Reporting Station
Light Snow Light Snow  
Wind Chill: -8°   Ceiling: 1500
Heat Index: -3°   Visibility: 4mi
Dew Point: -7°   Wind: 8mph
Humidity: 74%   Direction: 290°WNW
Pressure: 30.17"   Gusts: NA
Location:  43.02°N, 78.5°W
Report Text: KBUF 191352Z 29007KT 4SM -SN FEW010 BKN015 OVC037 M03/M07 A3017 RMK AO2 CIG 013V018 VIS HYR SE-SW P0000
Loading
Personal Weather Stations






























Interactive Weather Map New forecast layout! Learn more

10-Day Weather Forecast

Advertisements
Track Severe Weather on mobile